Quinnimont, West Virginia
Current Conditions -  °F | °C
As of 9:51 PM on Wednesday 22 Oct 2014 (Local Time) from KBKW Reporting Station
Overcast Overcast  
Wind Chill: 37°   Ceiling: 600
Heat Index: 43°   Visibility: 7mi
Dew Point: 40°   Wind: 10mph
Humidity: 89%   Direction: 340°NNW
Pressure: 30.18"   Gusts: 21mph
Location:  37.8544°N, 81.0446°W
Report Text: KBKW 230151Z AUTO 34009G18KT 7SM BKN006 OVC011 06/04 A3018 RMK AO2 RAB0059E24 CIG 005V008 SLP229 P0000 T00610044 TSNO
Loading
Personal Weather Stations






























Interactive Weather Map
Tropical Storm Tracking
New forecast layout! Learn more

10-Day Weather Forecast

Advertisements
Track Severe Weather on mobile